Time;durP1;ratioP1;P1;durP2;ratioP2;P2;SDS_P1;SDS_P2;PMS_P1;PMS_P2;Temp;Humidity;BMP_temperature;BMP_pressure;BME280_temperature;BME280_humidity;BME280_pressure;Samples;Min_cycle;Max_cycle;Signal;HPM_P1;HPM_P2
2022/01/01 00:02:13;;;;;;;6.28;3.58;;;;;;;;;;4972126;28;20027;-72
2022/01/01 00:04:40;;;;;;;6.68;4.18;;;;;;;;;;4972202;28;20030;-72
2022/01/01 00:07:05;;;;;;;5.22;3.28;;;;;;;;;;4972334;28;20026;-71
2022/01/01 00:09:30;;;;;;;5.85;3.70;;;;;;;;;;4972070;28;20031;-71
2022/01/01 00:11:55;;;;;;;6.13;3.85;;;;;;;;;;4971980;28;20436;-71
2022/01/01 00:14:20;;;;;;;5.75;3.08;;;;;;;;;;4971910;28;20054;-71
2022/01/01 00:16:45;;;;;;;5.63;3.50;;;;;;;;;;4972204;28;20023;-71
2022/01/01 00:19:11;;;;;;;4.68;2.85;;;;;;;;;;4971382;28;20113;-71
2022/01/01 00:21:36;;;;;;;5.63;3.08;;;;;;;;;;4971882;28;20041;-70
2022/01/01 00:24:01;;;;;;;4.40;2.88;;;;;;;;;;4970225;28;20026;-71
2022/01/01 00:26:26;;;;;;;5.57;3.08;;;;;;;;;;4971486;28;20023;-72
2022/01/01 00:28:51;;;;;;;4.82;2.92;;;;;;;;;;4971767;28;20031;-71
2022/01/01 00:31:17;;;;;;;4.10;2.75;;;;;;;;;;4970827;28;20076;-71
2022/01/01 00:33:42;;;;;;;4.15;2.75;;;;;;;;;;4970858;28;20540;-71
2022/01/01 00:36:07;;;;;;;4.75;2.60;;;;;;;;;;4967782;28;20031;-73
2022/01/01 00:38:32;;;;;;;6.30;2.97;;;;;;;;;;4970268;28;20434;-75
2022/01/01 00:40:58;;;;;;;4.65;2.63;;;;;;;;;;4969334;28;20049;-73
2022/01/01 00:43:24;;;;;;;3.88;2.42;;;;;;;;;;4970120;28;20031;-72
2022/01/01 00:45:50;;;;;;;3.72;2.42;;;;;;;;;;4970942;28;20045;-72
2022/01/01 00:48:15;;;;;;;3.75;2.30;;;;;;;;;;4968862;28;20117;-72
2022/01/01 00:50:40;;;;;;;4.20;2.70;;;;;;;;;;4965418;28;20062;-72
2022/01/01 00:53:05;;;;;;;3.67;1.73;;;;;;;;;;4971428;28;20101;-72
2022/01/01 00:55:31;;;;;;;2.70;1.95;;;;;;;;;;4970673;28;20042;-72
2022/01/01 00:57:56;;;;;;;4.03;2.40;;;;;;;;;;4971774;28;20033;-72
2022/01/01 01:00:21;;;;;;;3.60;2.13;;;;;;;;;;4968307;28;20071;-71
2022/01/01 01:02:46;;;;;;;5.70;2.78;;;;;;;;;;4970007;28;20393;-72
2022/01/01 01:05:11;;;;;;;4.63;2.50;;;;;;;;;;4967396;28;20044;-72
2022/01/01 01:07:36;;;;;;;3.75;2.30;;;;;;;;;;4970474;28;20019;-71
2022/01/01 01:10:03;;;;;;;4.10;2.55;;;;;;;;;;4970698;28;20023;-71
2022/01/01 01:12:40;;;;;;;3.47;2.13;;;;;;;;;;4969945;28;20410;-71
2022/01/01 01:15:06;;;;;;;3.78;2.20;;;;;;;;;;4971074;28;20054;-71
2022/01/01 01:17:31;;;;;;;5.05;3.15;;;;;;;;;;4966759;28;20038;-71
2022/01/01 01:19:56;;;;;;;5.55;2.60;;;;;;;;;;4969848;28;20042;-70
2022/01/01 01:22:22;;;;;;;4.32;2.65;;;;;;;;;;4973654;28;20030;-72
2022/01/01 01:24:47;;;;;;;5.00;2.55;;;;;;;;;;4970975;28;20027;-72
2022/01/01 01:27:12;;;;;;;4.28;2.38;;;;;;;;;;4970631;28;20046;-71
2022/01/01 01:29:41;;;;;;;5.03;2.50;;;;;;;;;;4970397;28;20019;-71
2022/01/01 01:32:07;;;;;;;5.25;2.85;;;;;;;;;;4968447;28;20023;-73
2022/01/01 01:34:32;;;;;;;5.50;2.75;;;;;;;;;;4966629;28;20042;-71
2022/01/01 01:36:58;;;;;;;4.90;2.60;;;;;;;;;;4969415;28;20027;-71
2022/01/01 01:39:23;;;;;;;5.43;2.60;;;;;;;;;;4970461;28;20035;-70
2022/01/01 01:41:51;;;;;;;5.40;2.95;;;;;;;;;;4968473;28;20646;-70
2022/01/01 01:44:29;;;;;;;5.53;2.75;;;;;;;;;;4970415;28;20058;-71
2022/01/01 01:46:54;;;;;;;5.72;2.90;;;;;;;;;;4970064;28;20482;-70
2022/01/01 01:49:20;;;;;;;4.85;2.72;;;;;;;;;;4968792;28;20073;-70
2022/01/01 01:51:45;;;;;;;6.35;3.05;;;;;;;;;;4960749;28;20089;-70
2022/01/01 01:54:10;;;;;;;6.03;2.92;;;;;;;;;;4968914;28;20470;-70
2022/01/01 01:56:36;;;;;;;4.95;2.63;;;;;;;;;;4967789;28;20278;-71
2022/01/01 01:59:01;;;;;;;4.68;2.55;;;;;;;;;;4968459;28;20093;-69
2022/01/01 02:01:27;;;;;;;4.57;2.67;;;;;;;;;;4969840;28;20034;-71
2022/01/01 02:03:56;;;;;;;4.15;2.45;;;;;;;;;;4965313;28;20022;-70
2022/01/01 02:06:21;;;;;;;4.35;2.72;;;;;;;;;;4968456;28;20034;-70
2022/01/01 02:08:49;;;;;;;4.28;2.47;;;;;;;;;;4969425;28;20030;-69
2022/01/01 02:11:15;;;;;;;5.35;2.47;;;;;;;;;;4965808;28;20057;-71
2022/01/01 02:14:01;;;;;;;5.95;2.40;;;;;;;;;;4968927;28;20502;-70
2022/01/01 02:18:51;;;;;;;4.40;2.50;;;;;;;;;;4969080;28;20027;-70
2022/01/01 02:21:18;;;;;;;5.05;3.25;;;;;;;;;;4967787;28;20529;-70
2022/01/01 02:23:44;;;;;;;5.80;3.25;;;;;;;;;;4967143;28;20078;-71
2022/01/01 02:26:15;;;;;;;5.00;2.97;;;;;;;;;;4968065;28;20037;-70
2022/01/01 02:28:41;;;;;;;5.10;2.80;;;;;;;;;;4965301;28;20050;-71
2022/01/01 02:31:06;;;;;;;5.97;2.90;;;;;;;;;;4967117;28;20022;-70
2022/01/01 02:33:32;;;;;;;5.15;2.90;;;;;;;;;;4968605;28;20042;-71
2022/01/01 02:35:57;;;;;;;4.28;2.70;;;;;;;;;;4968798;28;20041;-70
2022/01/01 02:38:22;;;;;;;5.18;2.85;;;;;;;;;;4968850;28;20565;-71
2022/01/01 02:40:47;;;;;;;4.57;2.53;;;;;;;;;;4968167;28;20073;-71
2022/01/01 02:43:14;;;;;;;4.25;2.67;;;;;;;;;;4968815;28;20031;-70
2022/01/01 02:45:39;;;;;;;5.15;3.15;;;;;;;;;;4969974;28;20022;-71
2022/01/01 02:48:05;;;;;;;4.63;2.53;;;;;;;;;;4966852;28;20586;-69
2022/01/01 02:50:31;;;;;;;5.22;2.97;;;;;;;;;;4968290;28;20440;-72
2022/01/01 02:52:56;;;;;;;5.80;2.65;;;;;;;;;;4968315;28;20062;-71
2022/01/01 02:55:21;;;;;;;6.07;2.85;;;;;;;;;;4968356;28;20034;-71
2022/01/01 02:57:46;;;;;;;5.13;2.30;;;;;;;;;;4965316;28;20030;-71
2022/01/01 03:00:12;;;;;;;4.63;2.50;;;;;;;;;;4964229;28;20495;-71
2022/01/01 03:02:38;;;;;;;4.63;2.60;;;;;;;;;;4964047;28;20504;-71
2022/01/01 03:05:04;;;;;;;4.47;2.40;;;;;;;;;;4968676;28;20077;-70
2022/01/01 03:07:29;;;;;;;4.85;2.80;;;;;;;;;;4968736;28;20418;-70
2022/01/01 03:09:54;;;;;;;4.35;2.40;;;;;;;;;;4965661;28;20504;-69
2022/01/01 03:12:19;;;;;;;4.65;2.45;;;;;;;;;;4961840;28;20106;-71
2022/01/01 03:14:44;;;;;;;5.13;2.60;;;;;;;;;;4965970;28;20063;-71
2022/01/01 03:17:10;;;;;;;4.28;2.35;;;;;;;;;;4967896;28;20085;-70
2022/01/01 03:19:35;;;;;;;3.50;2.20;;;;;;;;;;4968550;28;20046;-71
2022/01/01 03:22:01;;;;;;;5.10;2.55;;;;;;;;;;4964043;28;20027;-70
2022/01/01 03:24:26;;;;;;;4.88;2.63;;;;;;;;;;4968530;28;20663;-70
2022/01/01 03:26:51;;;;;;;4.22;2.40;;;;;;;;;;4962989;28;20039;-70
2022/01/01 03:29:17;;;;;;;3.85;2.50;;;;;;;;;;4968069;28;20041;-71
2022/01/01 03:31:42;;;;;;;3.80;2.47;;;;;;;;;;4956741;28;20156;-70
2022/01/01 03:34:07;;;;;;;4.45;2.50;;;;;;;;;;4963923;28;20039;-70
2022/01/01 03:36:32;;;;;;;3.42;2.10;;;;;;;;;;4963047;28;20018;-70
2022/01/01 03:38:59;;;;;;;3.90;2.10;;;;;;;;;;4966712;28;20113;-71
2022/01/01 03:41:26;;;;;;;4.55;2.28;;;;;;;;;;4968284;28;20023;-70
2022/01/01 03:43:51;;;;;;;5.30;2.85;;;;;;;;;;4968015;28;20553;-69
2022/01/01 03:46:16;;;;;;;3.50;2.10;;;;;;;;;;4967636;28;20114;-71
2022/01/01 03:48:41;;;;;;;4.05;2.60;;;;;;;;;;4964583;28;20027;-71
2022/01/01 03:51:06;;;;;;;4.30;2.33;;;;;;;;;;4968408;28;20038;-71
2022/01/01 03:53:32;;;;;;;4.13;2.60;;;;;;;;;;4968383;28;20034;-71
2022/01/01 03:55:58;;;;;;;4.95;2.80;;;;;;;;;;4968119;28;20026;-71
2022/01/01 03:58:23;;;;;;;4.03;2.45;;;;;;;;;;4967326;28;20037;-70
2022/01/01 04:00:49;;;;;;;4.88;2.45;;;;;;;;;;4970905;28;20565;-71
2022/01/01 04:03:16;;;;;;;5.60;2.47;;;;;;;;;;4970876;28;20018;-72
2022/01/01 04:05:42;;;;;;;4.78;2.72;;;;;;;;;;4968508;28;20074;-71
2022/01/01 04:08:08;;;;;;;3.67;2.38;;;;;;;;;;4969952;28;20042;-71
2022/01/01 04:10:33;;;;;;;5.70;3.05;;;;;;;;;;4968591;28;20584;-70
2022/01/01 04:12:59;;;;;;;4.43;2.72;;;;;;;;;;4971328;28;20034;-70
2022/01/01 04:15:25;;;;;;;4.60;2.50;;;;;;;;;;4970981;28;20047;-70
2022/01/01 04:17:53;;;;;;;4.70;2.97;;;;;;;;;;4968181;28;20042;-70
2022/01/01 04:20:18;;;;;;;3.92;2.53;;;;;;;;;;4967826;28;20038;-70
2022/01/01 04:22:43;;;;;;;4.88;2.70;;;;;;;;;;4970803;28;20041;-70
2022/01/01 04:25:08;;;;;;;4.32;2.47;;;;;;;;;;4970793;28;20050;-71
2022/01/01 04:27:34;;;;;;;5.20;2.28;;;;;;;;;;4971808;28;20027;-71
2022/01/01 04:29:59;;;;;;;4.18;2.60;;;;;;;;;;4968372;28;20485;-71
2022/01/01 04:32:24;;;;;;;4.25;2.53;;;;;;;;;;4964886;28;20128;-69
2022/01/01 04:34:49;;;;;;;4.75;2.42;;;;;;;;;;4967896;28;20025;-70
2022/01/01 04:37:17;;;;;;;4.07;2.63;;;;;;;;;;4970219;28;20158;-70
2022/01/01 04:39:42;;;;;;;4.30;2.50;;;;;;;;;;4968692;28;20026;-70
2022/01/01 04:42:07;;;;;;;5.40;2.58;;;;;;;;;;4967135;28;20022;-70
2022/01/01 04:44:32;;;;;;;4.15;2.40;;;;;;;;;;4970216;28;20030;-71
2022/01/01 04:46:58;;;;;;;4.82;3.00;;;;;;;;;;4968731;28;20023;-70
2022/01/01 04:49:23;;;;;;;6.35;2.50;;;;;;;;;;4965524;28;20031;-71
2022/01/01 04:51:49;;;;;;;4.15;2.70;;;;;;;;;;4970592;28;20018;-70
2022/01/01 04:54:15;;;;;;;4.50;2.67;;;;;;;;;;4969203;28;20498;-70
2022/01/01 04:56:45;;;;;;;5.25;2.70;;;;;;;;;;4970694;28;20086;-70
2022/01/01 04:59:10;;;;;;;;;;;;;;;;;;4970543;28;20070;-70
2022/01/01 05:01:36;;;;;;;5.65;2.55;;;;;;;;;;4962257;28;19949;-70
2022/01/01 05:04:01;;;;;;;4.13;2.42;;;;;;;;;;4967339;28;20297;-70
2022/01/01 05:06:26;;;;;;;6.38;3.00;;;;;;;;;;4969463;28;20058;-70
2022/01/01 05:08:51;;;;;;;4.90;3.05;;;;;;;;;;4967054;28;20106;-70
2022/01/01 05:11:16;;;;;;;4.90;2.90;;;;;;;;;;4969786;28;20095;-71
2022/01/01 05:13:42;;;;;;;5.35;2.88;;;;;;;;;;4969188;28;20438;-70
2022/01/01 05:16:07;;;;;;;4.35;2.65;;;;;;;;;;4968827;28;20077;-71
2022/01/01 05:18:36;;;;;;;3.83;2.40;;;;;;;;;;4967280;28;20034;-70
2022/01/01 05:21:01;;;;;;;7.85;3.92;;;;;;;;;;4968919;28;20125;-71
2022/01/01 05:23:26;;;;;;;8.80;5.32;;;;;;;;;;4968045;28;20529;-70
2022/01/01 05:25:52;;;;;;;10.38;6.20;;;;;;;;;;4967845;28;20027;-71
2022/01/01 05:28:17;;;;;;;8.15;5.03;;;;;;;;;;4967598;28;20098;-72
2022/01/01 05:30:43;;;;;;;6.07;3.83;;;;;;;;;;4969246;28;20019;-70
2022/01/01 05:33:08;;;;;;;7.15;3.70;;;;;;;;;;4965275;28;20031;-71
2022/01/01 05:35:33;;;;;;;6.05;3.83;;;;;;;;;;4966955;28;20039;-70
2022/01/01 05:37:58;;;;;;;5.55;3.42;;;;;;;;;;4962262;28;20026;-72
2022/01/01 05:40:23;;;;;;;5.78;3.15;;;;;;;;;;4967249;28;20141;-70
2022/01/01 05:42:49;;;;;;;5.40;3.00;;;;;;;;;;4967674;28;20023;-71
2022/01/01 05:45:14;;;;;;;5.47;2.80;;;;;;;;;;4966808;28;20063;-71
2022/01/01 05:47:39;;;;;;;5.03;2.65;;;;;;;;;;4966402;28;20035;-70
2022/01/01 05:50:05;;;;;;;5.22;2.90;;;;;;;;;;4968730;28;20213;-70
2022/01/01 05:52:30;;;;;;;3.83;2.38;;;;;;;;;;4969106;28;20035;-71
2022/01/01 05:54:55;;;;;;;5.80;3.00;;;;;;;;;;4964609;28;20086;-72
2022/01/01 05:57:20;;;;;;;4.70;2.40;;;;;;;;;;4965708;28;20117;-71
2022/01/01 05:59:45;;;;;;;5.10;3.00;;;;;;;;;;4964540;28;20035;-70
2022/01/01 06:02:11;;;;;;;4.40;2.50;;;;;;;;;;4966071;28;20038;-71
2022/01/01 06:04:36;;;;;;;7.05;2.70;;;;;;;;;;4964422;28;20186;-71
2022/01/01 06:07:01;;;;;;;4.22;2.55;;;;;;;;;;4969718;28;20046;-70
2022/01/01 06:09:26;;;;;;;4.65;2.25;;;;;;;;;;4969199;28;20049;-71
2022/01/01 06:11:52;;;;;;;5.65;2.63;;;;;;;;;;4963910;28;20073;-70
2022/01/01 06:14:17;;;;;;;4.88;2.50;;;;;;;;;;4968867;28;20042;-70
2022/01/01 06:16:42;;;;;;;3.75;2.03;;;;;;;;;;4969506;28;20084;-71
2022/01/01 06:19:07;;;;;;;6.88;2.60;;;;;;;;;;4968302;28;20122;-71
2022/01/01 06:21:32;;;;;;;4.80;2.30;;;;;;;;;;4964651;28;20080;-71
2022/01/01 06:23:58;;;;;;;3.30;2.00;;;;;;;;;;4969527;28;20425;-71
2022/01/01 06:26:23;;;;;;;3.08;1.80;;;;;;;;;;4966392;28;20427;-70
2022/01/01 06:28:48;;;;;;;4.40;2.20;;;;;;;;;;4969141;28;20057;-71
2022/01/01 06:31:13;;;;;;;4.95;2.15;;;;;;;;;;4947328;28;20078;-71
2022/01/01 06:33:38;;;;;;;4.75;2.42;;;;;;;;;;4968103;28;20035;-75
2022/01/01 06:36:04;;;;;;;4.72;2.28;;;;;;;;;;4967972;28;20070;-71
2022/01/01 06:38:29;;;;;;;4.18;2.42;;;;;;;;;;4968499;28;20023;-71
2022/01/01 06:40:54;;;;;;;3.72;2.00;;;;;;;;;;4968194;28;20031;-70
2022/01/01 06:43:22;;;;;;;4.90;2.83;;;;;;;;;;4969290;28;20434;-71
2022/01/01 06:45:47;;;;;;;4.75;2.47;;;;;;;;;;4969424;28;20037;-71
2022/01/01 06:48:12;;;;;;;4.72;2.40;;;;;;;;;;4966495;28;20022;-70
2022/01/01 06:50:38;;;;;;;6.05;2.85;;;;;;;;;;4963301;28;20501;-70
2022/01/01 06:53:03;;;;;;;6.65;3.20;;;;;;;;;;4967939;28;20026;-71
2022/01/01 06:55:28;;;;;;;5.93;3.10;;;;;;;;;;4968091;28;20027;-70
2022/01/01 06:57:53;;;;;;;4.97;2.85;;;;;;;;;;4966623;28;20039;-71
2022/01/01 07:00:19;;;;;;;6.30;2.78;;;;;;;;;;4965089;28;20539;-70
2022/01/01 07:02:45;;;;;;;4.70;2.90;;;;;;;;;;4966422;28;20031;-71
2022/01/01 07:05:11;;;;;;;7.63;3.05;;;;;;;;;;4965923;28;20154;-70
2022/01/01 07:07:36;;;;;;;3.72;2.28;;;;;;;;;;4969262;28;20126;-70
2022/01/01 07:10:02;;;;;;;4.47;2.30;;;;;;;;;;4968236;28;20110;-71
2022/01/01 07:12:27;;;;;;;4.95;2.80;;;;;;;;;;4967437;28;20137;-70
2022/01/01 07:14:52;;;;;;;5.55;2.80;;;;;;;;;;4968173;28;20047;-72
2022/01/01 07:17:18;;;;;;;5.13;2.30;;;;;;;;;;4968256;28;20050;-71
2022/01/01 07:19:43;;;;;;;5.00;2.53;;;;;;;;;;4961432;28;20082;-71
2022/01/01 07:22:08;;;;;;;4.85;2.60;;;;;;;;;;4965039;28;20023;-73
2022/01/01 07:24:33;;;;;;;5.15;2.65;;;;;;;;;;4965945;28;20031;-70
2022/01/01 07:26:58;;;;;;;4.50;2.88;;;;;;;;;;4965574;28;20031;-72
2022/01/01 07:29:24;;;;;;;5.38;2.83;;;;;;;;;;4967203;28;20027;-71
2022/01/01 07:31:52;;;;;;;5.15;2.42;;;;;;;;;;4966605;28;20097;-70
2022/01/01 07:34:18;;;;;;;10.18;2.75;;;;;;;;;;4969962;28;20617;-70
2022/01/01 07:36:43;;;;;;;4.93;2.42;;;;;;;;;;4966984;28;20033;-70
2022/01/01 07:39:10;;;;;;;5.10;2.60;;;;;;;;;;4971973;28;20844;-70
2022/01/01 07:41:36;;;;;;;4.65;2.55;;;;;;;;;;4970660;28;20057;-70
2022/01/01 07:44:01;;;;;;;6.43;2.92;;;;;;;;;;4972267;28;20077;-70
2022/01/01 07:46:26;;;;;;;4.15;2.60;;;;;;;;;;4975580;28;20027;-70
2022/01/01 07:48:51;;;;;;;7.15;2.63;;;;;;;;;;4970931;28;20019;-71
2022/01/01 07:51:17;;;;;;;5.07;2.88;;;;;;;;;;4969615;28;20114;-73
2022/01/01 07:53:42;;;;;;;5.18;2.85;;;;;;;;;;4963780;28;20030;-70
2022/01/01 07:56:07;;;;;;;4.60;2.67;;;;;;;;;;4969506;28;20114;-71
2022/01/01 07:58:32;;;;;;;5.20;2.70;;;;;;;;;;4969789;28;20039;-72
2022/01/01 08:00:57;;;;;;;4.97;2.67;;;;;;;;;;4967517;28;20039;-72
2022/01/01 08:03:22;;;;;;;3.85;2.58;;;;;;;;;;4965380;28;20102;-71
2022/01/01 08:05:48;;;;;;;4.50;2.40;;;;;;;;;;4961011;28;20105;-71
2022/01/01 08:08:13;;;;;;;4.38;2.40;;;;;;;;;;4968886;28;20396;-71
2022/01/01 08:10:39;;;;;;;4.38;2.13;;;;;;;;;;4968623;28;20030;-72
2022/01/01 08:13:06;;;;;;;3.35;2.08;;;;;;;;;;4964475;28;20042;-71
2022/01/01 08:15:31;;;;;;;3.67;2.10;;;;;;;;;;4968906;28;20074;-72
2022/01/01 08:17:56;;;;;;;3.85;2.25;;;;;;;;;;4963270;28;20027;-70
2022/01/01 08:20:22;;;;;;;4.80;2.33;;;;;;;;;;4963702;28;20070;-72
2022/01/01 08:22:47;;;;;;;5.75;2.33;;;;;;;;;;4957617;28;20047;-72
2022/01/01 08:25:12;;;;;;;4.25;2.70;;;;;;;;;;4969876;28;20027;-71
2022/01/01 08:27:38;;;;;;;4.28;2.53;;;;;;;;;;4965617;28;20046;-71
2022/01/01 08:30:03;;;;;;;4.47;2.70;;;;;;;;;;4964877;28;20118;-72
2022/01/01 08:32:28;;;;;;;5.55;2.67;;;;;;;;;;4968665;28;20012;-70
2022/01/01 08:34:53;;;;;;;4.63;2.00;;;;;;;;;;4965556;28;20034;-71
2022/01/01 08:37:19;;;;;;;4.53;2.35;;;;;;;;;;4965827;28;20501;-71
2022/01/01 08:39:44;;;;;;;3.55;2.28;;;;;;;;;;4968609;28;20587;-70
2022/01/01 08:42:12;;;;;;;4.30;2.20;;;;;;;;;;4969733;28;20078;-70
2022/01/01 08:44:37;;;;;;;3.30;2.20;;;;;;;;;;4969645;28;20474;-72
2022/01/01 08:47:03;;;;;;;3.80;2.33;;;;;;;;;;4968886;28;20030;-71
2022/01/01 08:49:28;;;;;;;3.50;2.13;;;;;;;;;;4971693;28;20046;-71
2022/01/01 08:51:56;;;;;;;4.25;2.35;;;;;;;;;;4970289;28;20034;-71
2022/01/01 08:54:21;;;;;;;4.10;2.40;;;;;;;;;;4970269;28;20027;-71
2022/01/01 08:56:46;;;;;;;3.50;2.10;;;;;;;;;;4969156;28;20034;-71
2022/01/01 08:59:11;;;;;;;4.10;2.10;;;;;;;;;;4971003;28;20081;-71
2022/01/01 09:01:36;;;;;;;3.85;2.42;;;;;;;;;;4970288;28;20023;-71
2022/01/01 09:04:02;;;;;;;3.60;2.00;;;;;;;;;;4970154;28;20022;-70
2022/01/01 09:06:27;;;;;;;3.92;2.20;;;;;;;;;;4968431;28;20050;-71
2022/01/01 09:08:52;;;;;;;4.22;2.33;;;;;;;;;;4960442;28;20053;-70
2022/01/01 09:11:17;;;;;;;4.90;2.63;;;;;;;;;;4969394;28;20015;-71
2022/01/01 09:13:43;;;;;;;5.75;2.63;;;;;;;;;;4971293;28;20055;-70
2022/01/01 09:16:10;;;;;;;3.92;2.40;;;;;;;;;;4967612;28;20039;-70
2022/01/01 09:18:36;;;;;;;3.58;2.20;;;;;;;;;;4970799;28;20417;-71
2022/01/01 09:21:01;;;;;;;4.07;2.40;;;;;;;;;;4970933;28;20034;-73
2022/01/01 09:23:26;;;;;;;4.82;2.55;;;;;;;;;;4969958;28;20085;-70
2022/01/01 09:25:51;;;;;;;3.58;2.20;;;;;;;;;;4970874;28;20469;-71
2022/01/01 09:28:17;;;;;;;4.38;2.25;;;;;;;;;;4966895;28;20071;-67
2022/01/01 09:30:42;;;;;;;4.10;2.13;;;;;;;;;;4969205;28;20058;-66
2022/01/01 09:33:07;;;;;;;3.67;2.03;;;;;;;;;;4968134;28;20030;-68
2022/01/01 09:35:32;;;;;;;5.32;2.10;;;;;;;;;;4962614;28;20027;-65
2022/01/01 09:37:58;;;;;;;4.82;2.13;;;;;;;;;;4969493;28;20055;-66
2022/01/01 09:40:24;;;;;;;4.03;2.20;;;;;;;;;;4952258;28;20061;-65
2022/01/01 09:42:50;;;;;;;3.90;2.20;;;;;;;;;;4970190;28;20023;-66
2022/01/01 09:45:16;;;;;;;3.65;2.25;;;;;;;;;;4969516;28;20036;-66
2022/01/01 09:47:42;;;;;;;4.35;2.47;;;;;;;;;;4967123;28;20105;-66
2022/01/01 09:50:08;;;;;;;4.78;2.13;;;;;;;;;;4968244;28;20176;-66
2022/01/01 09:52:34;;;;;;;4.50;2.20;;;;;;;;;;4968925;28;20027;-66
2022/01/01 09:54:59;;;;;;;2.90;2.00;;;;;;;;;;4968389;28;20105;-66
2022/01/01 09:57:24;;;;;;;3.92;2.05;;;;;;;;;;4965047;28;20096;-65
2022/01/01 09:59:50;;;;;;;2.80;1.90;;;;;;;;;;4968697;28;20151;-65
2022/01/01 10:02:15;;;;;;;2.90;1.80;;;;;;;;;;4967562;28;20034;-66
2022/01/01 10:04:44;;;;;;;4.35;2.25;;;;;;;;;;4967195;28;20030;-65
2022/01/01 10:07:09;;;;;;;3.33;2.23;;;;;;;;;;4967786;28;20069;-64
2022/01/01 10:09:36;;;;;;;3.88;2.30;;;;;;;;;;4969371;28;20037;-66
2022/01/01 10:12:05;;;;;;;4.82;2.35;;;;;;;;;;4969564;28;20062;-65
2022/01/01 10:14:38;;;;;;;4.63;2.40;;;;;;;;;;4971360;28;20441;-67
2022/01/01 10:17:18;;;;;;;4.05;2.40;;;;;;;;;;4963515;28;20474;-66
2022/01/01 10:19:44;;;;;;;4.65;2.30;;;;;;;;;;4968473;28;20597;-66
2022/01/01 10:22:13;;;;;;;4.28;2.20;;;;;;;;;;4969869;28;20058;-65
2022/01/01 10:27:43;;;;;;;4.22;2.30;;;;;;;;;;4964476;28;20054;-66
2022/01/01 10:30:19;;;;;;;4.20;2.33;;;;;;;;;;4967113;28;20030;-66
2022/01/01 10:33:00;;;;;;;4.47;2.45;;;;;;;;;;4968560;28;20473;-66
2022/01/01 10:35:25;;;;;;;5.47;2.40;;;;;;;;;;4964541;28;20046;-66
2022/01/01 10:37:50;;;;;;;4.15;2.30;;;;;;;;;;4967599;28;20402;-66
2022/01/01 10:40:23;;;;;;;3.60;2.17;;;;;;;;;;4960878;28;20031;-65
2022/01/01 10:42:49;;;;;;;4.93;2.33;;;;;;;;;;4952159;28;20038;-66
2022/01/01 10:45:27;;;;;;;4.07;2.10;;;;;;;;;;4968081;28;20066;-67
2022/01/01 10:48:03;;;;;;;4.97;2.22;;;;;;;;;;4966014;28;20098;-67
2022/01/01 10:50:34;;;;;;;4.85;2.30;;;;;;;;;;4967556;28;20030;-66
2022/01/01 10:53:12;;;;;;;3.50;2.22;;;;;;;;;;4966616;28;20038;-66
2022/01/01 10:55:41;;;;;;;4.45;2.88;;;;;;;;;;4967940;28;20450;-66
2022/01/01 10:58:07;;;;;;;4.80;2.77;;;;;;;;;;4967962;28;20019;-66
2022/01/01 11:00:38;;;;;;;4.55;2.47;;;;;;;;;;4968985;28;20505;-66
2022/01/01 11:03:04;;;;;;;3.85;2.20;;;;;;;;;;4968797;28;20370;-66
2022/01/01 11:05:30;;;;;;;6.03;2.47;;;;;;;;;;4968784;28;20019;-66
2022/01/01 11:07:55;;;;;;;5.82;2.25;;;;;;;;;;4971069;28;20038;-66
2022/01/01 11:10:22;;;;;;;3.83;1.90;;;;;;;;;;4971420;28;20026;-66
2022/01/01 11:12:47;;;;;;;3.97;1.98;;;;;;;;;;4973055;28;20098;-65
2022/01/01 11:15:13;;;;;;;3.45;1.75;;;;;;;;;;4972485;28;20212;-65
2022/01/01 11:17:38;;;;;;;3.75;2.05;;;;;;;;;;4971588;28;20019;-68
2022/01/01 11:20:05;;;;;;;3.10;1.63;;;;;;;;;;4949106;28;20051;-66
2022/01/01 11:22:30;;;;;;;3.45;1.75;;;;;;;;;;4972364;28;20047;-69
2022/01/01 11:24:56;;;;;;;4.88;1.95;;;;;;;;;;4972880;28;20031;-67
2022/01/01 11:27:22;;;;;;;4.00;1.85;;;;;;;;;;4972748;28;20351;-66
2022/01/01 11:29:52;;;;;;;3.75;1.75;;;;;;;;;;4972329;28;20086;-67
2022/01/01 11:32:17;;;;;;;;;;;;;;;;;;4970555;28;20022;-67
2022/01/01 11:34:44;;;;;;;3.00;1.77;;;;;;;;;;4973415;28;19914;-66
2022/01/01 11:37:12;;;;;;;2.97;1.70;;;;;;;;;;4972147;28;20094;-67
2022/01/01 11:39:37;;;;;;;3.05;1.73;;;;;;;;;;4973138;28;20409;-66
2022/01/01 11:42:13;;;;;;;2.70;1.55;;;;;;;;;;4972021;28;20027;-67
2022/01/01 11:44:40;;;;;;;2.70;1.58;;;;;;;;;;4961762;28;20030;-67
2022/01/01 11:47:13;;;;;;;3.15;1.60;;;;;;;;;;4970589;28;20390;-69
2022/01/01 11:49:38;;;;;;;4.65;2.05;;;;;;;;;;4971628;28;20252;-68
2022/01/01 11:52:03;;;;;;;3.28;1.75;;;;;;;;;;4964220;28;20489;-67
2022/01/01 11:54:32;;;;;;;3.45;1.55;;;;;;;;;;4969967;28;20027;-67
2022/01/01 11:56:59;;;;;;;3.10;1.83;;;;;;;;;;4970696;28;20089;-67
2022/01/01 11:59:25;;;;;;;2.80;1.67;;;;;;;;;;4971127;28;20038;-66
2022/01/01 12:01:52;;;;;;;3.80;1.90;;;;;;;;;;4966225;28;20561;-67
2022/01/01 12:04:27;;;;;;;3.58;2.10;;;;;;;;;;4972517;28;20386;-68
2022/01/01 12:06:57;;;;;;;3.88;1.90;;;;;;;;;;4965994;28;20031;-68
2022/01/01 12:09:23;;;;;;;3.92;2.05;;;;;;;;;;4970935;28;20561;-69
2022/01/01 12:11:56;;;;;;;3.60;2.08;;;;;;;;;;4972120;28;20033;-69
2022/01/01 12:14:25;;;;;;;3.92;1.58;;;;;;;;;;4969220;28;20086;-67
2022/01/01 12:16:51;;;;;;;3.35;1.70;;;;;;;;;;4971922;28;20030;-67
2022/01/01 12:19:19;;;;;;;3.75;2.03;;;;;;;;;;4969792;28;20034;-67
2022/01/01 12:21:44;;;;;;;4.05;2.15;;;;;;;;;;4971611;28;20081;-67
2022/01/01 12:24:16;;;;;;;3.58;2.10;;;;;;;;;;4968576;28;20054;-68
2022/01/01 12:26:49;;;;;;;4.80;2.35;;;;;;;;;;4972030;28;20113;-67
2022/01/01 12:29:14;;;;;;;5.82;2.75;;;;;;;;;;4971467;28;20458;-68
2022/01/01 12:31:53;;;;;;;3.15;1.90;;;;;;;;;;4971907;28;20042;-67
2022/01/01 12:34:18;;;;;;;3.17;2.00;;;;;;;;;;4971589;28;20383;-67
2022/01/01 12:36:49;;;;;;;3.20;2.00;;;;;;;;;;4971974;28;20269;-67
2022/01/01 12:39:14;;;;;;;3.40;1.52;;;;;;;;;;4971416;28;20590;-67
2022/01/01 12:41:41;;;;;;;4.07;1.75;;;;;;;;;;4970896;28;20109;-67
2022/01/01 12:44:07;;;;;;;4.55;1.83;;;;;;;;;;4971323;28;20101;-66
2022/01/01 12:46:34;;;;;;;3.85;1.60;;;;;;;;;;4974115;28;20495;-65
2022/01/01 12:49:01;;;;;;;3.72;1.75;;;;;;;;;;4971247;28;20022;-68
2022/01/01 12:51:28;;;;;;;4.15;1.83;;;;;;;;;;4972242;28;20023;-66
2022/01/01 12:53:56;;;;;;;3.40;1.63;;;;;;;;;;4971379;28;20053;-66
2022/01/01 12:56:21;;;;;;;3.60;2.00;;;;;;;;;;4972338;28;20414;-66
2022/01/01 12:58:48;;;;;;;2.85;1.52;;;;;;;;;;4970014;28;20030;-65
2022/01/01 13:01:14;;;;;;;3.65;2.00;;;;;;;;;;4965834;28;20035;-66
2022/01/01 13:03:41;;;;;;;4.63;1.50;;;;;;;;;;4963715;28;20026;-66
2022/01/01 13:06:07;;;;;;;3.55;1.80;;;;;;;;;;4969143;28;20034;-66
2022/01/01 13:08:32;;;;;;;3.67;1.55;;;;;;;;;;4966203;28;20030;-66
2022/01/01 13:10:57;;;;;;;3.10;1.52;;;;;;;;;;4970212;28;20113;-66
2022/01/01 13:13:24;;;;;;;2.83;1.52;;;;;;;;;;4968576;28;20066;-65
2022/01/01 13:15:49;;;;;;;4.85;2.33;;;;;;;;;;4974493;28;20058;-65
2022/01/01 13:18:16;;;;;;;6.55;2.30;;;;;;;;;;4966455;28;20035;-66
2022/01/01 13:20:42;;;;;;;5.65;2.13;;;;;;;;;;4968565;28;20031;-66
2022/01/01 13:23:07;;;;;;;3.72;1.90;;;;;;;;;;4962921;28;20336;-66
2022/01/01 13:25:32;;;;;;;3.88;1.90;;;;;;;;;;4970561;28;20118;-66
2022/01/01 13:27:58;;;;;;;3.22;1.50;;;;;;;;;;4971585;28;20026;-66
2022/01/01 13:30:24;;;;;;;4.60;1.60;;;;;;;;;;4970372;28;20114;-67
2022/01/01 13:32:49;;;;;;;4.13;2.00;;;;;;;;;;4966169;28;20093;-68
2022/01/01 13:35:27;;;;;;;2.60;1.45;;;;;;;;;;4970125;28;20035;-66
2022/01/01 13:37:53;;;;;;;4.43;1.98;;;;;;;;;;4970803;28;20029;-65
2022/01/01 13:40:19;;;;;;;3.70;1.63;;;;;;;;;;4968670;28;20486;-68
2022/01/01 13:42:44;;;;;;;3.78;1.63;;;;;;;;;;4970826;28;20027;-67
2022/01/01 13:45:10;;;;;;;3.55;1.40;;;;;;;;;;4966218;28;20022;-67
2022/01/01 13:47:35;;;;;;;3.10;1.60;;;;;;;;;;4970116;28;20022;-67
2022/01/01 13:50:10;;;;;;;2.60;1.50;;;;;;;;;;4969651;28;20027;-66
2022/01/01 13:52:36;;;;;;;3.25;1.63;;;;;;;;;;4963970;28;20077;-67
2022/01/01 13:55:04;;;;;;;3.30;2.00;;;;;;;;;;4970297;28;20026;-67
2022/01/01 13:57:29;;;;;;;3.40;1.50;;;;;;;;;;4967504;28;20014;-66
2022/01/01 13:59:55;;;;;;;3.58;1.60;;;;;;;;;;4970245;28;20223;-66
2022/01/01 14:02:26;;;;;;;3.22;1.88;;;;;;;;;;4969832;28;20426;-67
2022/01/01 14:04:54;;;;;;;3.80;1.90;;;;;;;;;;4969250;28;20085;-65
2022/01/01 14:07:19;;;;;;;2.83;1.60;;;;;;;;;;4965901;28;20092;-66
2022/01/01 14:10:00;;;;;;;3.53;1.57;;;;;;;;;;4968196;28;20426;-66
2022/01/01 14:12:29;;;;;;;3.33;1.60;;;;;;;;;;4965334;28;20275;-66
2022/01/01 14:15:01;;;;;;;3.72;1.80;;;;;;;;;;4967147;28;20058;-65
2022/01/01 14:17:26;;;;;;;2.15;1.58;;;;;;;;;;4968718;28;20031;-65
2022/01/01 14:19:51;;;;;;;3.60;1.60;;;;;;;;;;4969500;28;20065;-66
2022/01/01 14:22:16;;;;;;;5.03;1.80;;;;;;;;;;4948804;28;20278;-67
2022/01/01 14:24:50;;;;;;;3.80;1.42;;;;;;;;;;4970062;28;20110;-65
2022/01/01 14:27:15;;;;;;;3.78;1.50;;;;;;;;;;4967814;28;20027;-66
2022/01/01 14:29:40;;;;;;;3.83;1.67;;;;;;;;;;4969566;28;20029;-67
2022/01/01 14:32:06;;;;;;;2.87;1.40;;;;;;;;;;4967661;28;20340;-66
2022/01/01 14:34:31;;;;;;;3.03;1.83;;;;;;;;;;4967714;28;20286;-66
2022/01/01 14:36:56;;;;;;;3.70;1.70;;;;;;;;;;4965455;28;20602;-66
2022/01/01 14:39:22;;;;;;;3.70;1.70;;;;;;;;;;4965798;28;20278;-67
2022/01/01 14:41:47;;;;;;;3.22;1.77;;;;;;;;;;4963975;28;20765;-66
2022/01/01 14:44:13;;;;;;;2.97;1.57;;;;;;;;;;4969911;28;20105;-66